sensor_id;sensor_type;location;lat;lon;timestamp;temperature;humidity
21271;DHT22;10795;50.796;3.860;2023-03-23T00:00:00;12.70;99.90
21271;DHT22;10795;50.796;3.860;2023-03-23T00:02:30;12.80;99.90
21271;DHT22;10795;50.796;3.860;2023-03-23T00:05:07;12.80;99.90
21271;DHT22;10795;50.796;3.860;2023-03-23T00:07:34;12.80;99.90
21271;DHT22;10795;50.796;3.860;2023-03-23T00:10:02;12.80;99.90
21271;DHT22;10795;50.796;3.860;2023-03-23T00:12:30;12.70;99.90
21271;DHT22;10795;50.796;3.860;2023-03-23T00:15:06;12.80;99.90
21271;DHT22;10795;50.796;3.860;2023-03-23T00:17:34;12.80;99.90
21271;DHT22;10795;50.796;3.860;2023-03-23T00:20:01;12.70;99.90
21271;DHT22;10795;50.796;3.860;2023-03-23T00:22:29;12.70;99.90
21271;DHT22;10795;50.796;3.860;2023-03-23T00:24:55;12.70;99.90
21271;DHT22;10795;50.796;3.860;2023-03-23T00:27:22;12.70;99.90
21271;DHT22;10795;50.796;3.860;2023-03-23T00:29:51;12.70;99.90
21271;DHT22;10795;50.796;3.860;2023-03-23T00:32:20;12.60;99.90
21271;DHT22;10795;50.796;3.860;2023-03-23T00:34:46;12.60;99.90
21271;DHT22;10795;50.796;3.860;2023-03-23T00:37:14;12.60;99.90
21271;DHT22;10795;50.796;3.860;2023-03-23T00:39:42;12.70;99.90
21271;DHT22;10795;50.796;3.860;2023-03-23T00:42:14;12.70;99.90
21271;DHT22;10795;50.796;3.860;2023-03-23T00:44:42;12.60;99.90
21271;DHT22;10795;50.796;3.860;2023-03-23T00:47:10;12.70;99.90
21271;DHT22;10795;50.796;3.860;2023-03-23T00:49:38;12.80;99.90
21271;DHT22;10795;50.796;3.860;2023-03-23T00:52:05;12.80;99.90
21271;DHT22;10795;50.796;3.860;2023-03-23T00:54:32;12.70;99.90
21271;DHT22;10795;50.796;3.860;2023-03-23T00:56:59;12.80;99.90
21271;DHT22;10795;50.796;3.860;2023-03-23T00:59:25;12.70;99.90
21271;DHT22;10795;50.796;3.860;2023-03-23T01:01:51;12.70;99.90
21271;DHT22;10795;50.796;3.860;2023-03-23T01:04:17;12.70;99.90
21271;DHT22;10795;50.796;3.860;2023-03-23T01:06:44;12.70;99.90
21271;DHT22;10795;50.796;3.860;2023-03-23T01:09:13;12.70;99.90
21271;DHT22;10795;50.796;3.860;2023-03-23T01:11:44;12.70;99.90
21271;DHT22;10795;50.796;3.860;2023-03-23T01:14:12;12.70;99.90
21271;DHT22;10795;50.796;3.860;2023-03-23T01:16:38;12.70;99.90
21271;DHT22;10795;50.796;3.860;2023-03-23T01:19:05;12.70;99.90
21271;DHT22;10795;50.796;3.860;2023-03-23T01:21:31;12.70;99.90
21271;DHT22;10795;50.796;3.860;2023-03-23T01:23:57;12.80;99.90
21271;DHT22;10795;50.796;3.860;2023-03-23T01:26:25;12.80;99.90
21271;DHT22;10795;50.796;3.860;2023-03-23T01:28:52;12.80;99.90
21271;DHT22;10795;50.796;3.860;2023-03-23T01:31:21;12.90;99.90
21271;DHT22;10795;50.796;3.860;2023-03-23T01:33:48;12.90;99.90
21271;DHT22;10795;50.796;3.860;2023-03-23T01:36:19;12.90;99.90
21271;DHT22;10795;50.796;3.860;2023-03-23T01:38:48;12.90;99.90
21271;DHT22;10795;50.796;3.860;2023-03-23T01:41:17;12.90;99.90
21271;DHT22;10795;50.796;3.860;2023-03-23T01:44:04;12.80;99.90
21271;DHT22;10795;50.796;3.860;2023-03-23T01:46:36;12.70;99.90
21271;DHT22;10795;50.796;3.860;2023-03-23T01:49:44;12.70;99.90
21271;DHT22;10795;50.796;3.860;2023-03-23T01:52:18;12.70;99.90
21271;DHT22;10795;50.796;3.860;2023-03-23T01:54:47;12.70;99.90
21271;DHT22;10795;50.796;3.860;2023-03-23T01:57:16;12.60;99.90
21271;DHT22;10795;50.796;3.860;2023-03-23T01:59:46;12.70;99.90
21271;DHT22;10795;50.796;3.860;2023-03-23T02:02:21;12.60;99.90
21271;DHT22;10795;50.796;3.860;2023-03-23T02:04:48;12.60;99.90
21271;DHT22;10795;50.796;3.860;2023-03-23T02:07:15;12.60;99.90
21271;DHT22;10795;50.796;3.860;2023-03-23T02:09:42;12.50;99.90
21271;DHT22;10795;50.796;3.860;2023-03-23T02:12:09;12.60;99.90
21271;DHT22;10795;50.796;3.860;2023-03-23T02:14:37;12.50;99.90
21271;DHT22;10795;50.796;3.860;2023-03-23T02:25:59;12.50;99.90
21271;DHT22;10795;50.796;3.860;2023-03-23T02:34:26;12.50;99.90
21271;DHT22;10795;50.796;3.860;2023-03-23T02:37:05;12.50;99.90
21271;DHT22;10795;50.796;3.860;2023-03-23T02:39:37;12.50;99.90
21271;DHT22;10795;50.796;3.860;2023-03-23T02:42:07;12.40;99.90
21271;DHT22;10795;50.796;3.860;2023-03-23T02:44:37;12.50;99.90
21271;DHT22;10795;50.796;3.860;2023-03-23T02:47:07;12.50;99.90
21271;DHT22;10795;50.796;3.860;2023-03-23T02:49:36;12.60;99.90
21271;DHT22;10795;50.796;3.860;2023-03-23T02:52:04;12.50;99.90
21271;DHT22;10795;50.796;3.860;2023-03-23T02:54:33;12.60;99.90
21271;DHT22;10795;50.796;3.860;2023-03-23T02:57:03;12.50;99.90
21271;DHT22;10795;50.796;3.860;2023-03-23T02:59:40;12.50;99.90
21271;DHT22;10795;50.796;3.860;2023-03-23T03:02:18;12.50;99.90
21271;DHT22;10795;50.796;3.860;2023-03-23T03:07:59;12.50;99.90
21271;DHT22;10795;50.796;3.860;2023-03-23T03:11:15;12.50;99.90
21271;DHT22;10795;50.796;3.860;2023-03-23T03:21:27;12.40;99.90
21271;DHT22;10795;50.796;3.860;2023-03-23T03:23:58;12.50;99.90
21271;DHT22;10795;50.796;3.860;2023-03-23T03:26:42;12.40;99.90
21271;DHT22;10795;50.796;3.860;2023-03-23T03:29:34;12.40;99.90
21271;DHT22;10795;50.796;3.860;2023-03-23T03:32:04;12.40;99.90
21271;DHT22;10795;50.796;3.860;2023-03-23T03:34:33;12.40;99.90
21271;DHT22;10795;50.796;3.860;2023-03-23T03:37:04;12.50;99.90
21271;DHT22;10795;50.796;3.860;2023-03-23T03:39:36;12.40;99.90
21271;DHT22;10795;50.796;3.860;2023-03-23T03:42:08;12.40;99.90
21271;DHT22;10795;50.796;3.860;2023-03-23T03:44:37;12.40;99.90
21271;DHT22;10795;50.796;3.860;2023-03-23T03:47:05;12.40;99.90
21271;DHT22;10795;50.796;3.860;2023-03-23T03:49:31;12.40;99.90
21271;DHT22;10795;50.796;3.860;2023-03-23T03:51:57;12.40;99.90
21271;DHT22;10795;50.796;3.860;2023-03-23T03:54:33;12.30;99.90
21271;DHT22;10795;50.796;3.860;2023-03-23T03:56:59;12.30;99.90
21271;DHT22;10795;50.796;3.860;2023-03-23T03:59:47;12.40;99.90
21271;DHT22;10795;50.796;3.860;2023-03-23T04:02:32;12.40;99.90
21271;DHT22;10795;50.796;3.860;2023-03-23T04:05:01;12.30;99.90
21271;DHT22;10795;50.796;3.860;2023-03-23T04:07:30;12.30;99.90
21271;DHT22;10795;50.796;3.860;2023-03-23T04:09:57;12.30;99.90
21271;DHT22;10795;50.796;3.860;2023-03-23T04:12:23;12.30;99.90
21271;DHT22;10795;50.796;3.860;2023-03-23T04:14:54;12.20;99.90
21271;DHT22;10795;50.796;3.860;2023-03-23T04:17:23;12.20;99.90
21271;DHT22;10795;50.796;3.860;2023-03-23T04:19:53;12.30;99.90
21271;DHT22;10795;50.796;3.860;2023-03-23T04:22:24;12.30;99.90
21271;DHT22;10795;50.796;3.860;2023-03-23T04:25:00;12.30;99.90
21271;DHT22;10795;50.796;3.860;2023-03-23T04:27:29;12.20;99.90
21271;DHT22;10795;50.796;3.860;2023-03-23T04:29:58;12.30;99.90
21271;DHT22;10795;50.796;3.860;2023-03-23T04:32:43;12.30;99.90
21271;DHT22;10795;50.796;3.860;2023-03-23T04:35:14;12.20;99.90
21271;DHT22;10795;50.796;3.860;2023-03-23T04:37:48;12.20;99.90
21271;DHT22;10795;50.796;3.860;2023-03-23T04:40:18;12.20;99.90
21271;DHT22;10795;50.796;3.860;2023-03-23T04:42:57;12.10;99.90
21271;DHT22;10795;50.796;3.860;2023-03-23T04:45:41;12.30;99.90
21271;DHT22;10795;50.796;3.860;2023-03-23T04:48:13;12.20;99.90
21271;DHT22;10795;50.796;3.860;2023-03-23T04:50:50;12.20;99.90
21271;DHT22;10795;50.796;3.860;2023-03-23T04:53:23;12.20;99.90
21271;DHT22;10795;50.796;3.860;2023-03-23T04:55:49;12.20;99.90
21271;DHT22;10795;50.796;3.860;2023-03-23T04:58:17;12.20;99.90
21271;DHT22;10795;50.796;3.860;2023-03-23T05:01:08;12.10;99.90
21271;DHT22;10795;50.796;3.860;2023-03-23T05:03:43;12.00;99.90
21271;DHT22;10795;50.796;3.860;2023-03-23T05:06:10;12.10;99.90
21271;DHT22;10795;50.796;3.860;2023-03-23T05:08:37;12.10;99.90
21271;DHT22;10795;50.796;3.860;2023-03-23T05:11:06;12.10;99.90
21271;DHT22;10795;50.796;3.860;2023-03-23T05:13:35;12.20;99.90
21271;DHT22;10795;50.796;3.860;2023-03-23T05:16:05;12.20;99.90
21271;DHT22;10795;50.796;3.860;2023-03-23T05:18:33;12.20;99.90
21271;DHT22;10795;50.796;3.860;2023-03-23T05:21:03;12.20;99.90
21271;DHT22;10795;50.796;3.860;2023-03-23T05:23:34;12.10;99.90
21271;DHT22;10795;50.796;3.860;2023-03-23T05:26:12;12.10;99.90
21271;DHT22;10795;50.796;3.860;2023-03-23T05:28:39;12.20;99.90
21271;DHT22;10795;50.796;3.860;2023-03-23T05:31:15;12.20;99.90
21271;DHT22;10795;50.796;3.860;2023-03-23T05:33:42;12.10;99.90
21271;DHT22;10795;50.796;3.860;2023-03-23T05:36:28;12.20;99.90
21271;DHT22;10795;50.796;3.860;2023-03-23T05:39:20;12.20;99.90
21271;DHT22;10795;50.796;3.860;2023-03-23T05:42:02;12.20;99.90
21271;DHT22;10795;50.796;3.860;2023-03-23T05:44:40;12.20;99.90
21271;DHT22;10795;50.796;3.860;2023-03-23T05:47:06;12.20;99.90
21271;DHT22;10795;50.796;3.860;2023-03-23T05:49:32;12.10;99.90
21271;DHT22;10795;50.796;3.860;2023-03-23T05:51:58;12.20;99.90
21271;DHT22;10795;50.796;3.860;2023-03-23T05:54:26;12.20;99.90
21271;DHT22;10795;50.796;3.860;2023-03-23T05:56:53;12.10;99.90
21271;DHT22;10795;50.796;3.860;2023-03-23T05:59:32;12.10;99.90
21271;DHT22;10795;50.796;3.860;2023-03-23T06:02:00;12.20;99.90
21271;DHT22;10795;50.796;3.860;2023-03-23T06:04:26;12.10;99.90
21271;DHT22;10795;50.796;3.860;2023-03-23T06:07:14;12.10;99.90
21271;DHT22;10795;50.796;3.860;2023-03-23T06:09:53;12.10;99.90
21271;DHT22;10795;50.796;3.860;2023-03-23T06:12:36;12.10;99.90
21271;DHT22;10795;50.796;3.860;2023-03-23T06:15:13;12.10;99.90
21271;DHT22;10795;50.796;3.860;2023-03-23T06:18:04;12.10;99.90
21271;DHT22;10795;50.796;3.860;2023-03-23T06:20:50;12.10;99.90
21271;DHT22;10795;50.796;3.860;2023-03-23T06:23:30;12.10;99.90
21271;DHT22;10795;50.796;3.860;2023-03-23T06:25:59;12.00;99.90
21271;DHT22;10795;50.796;3.860;2023-03-23T06:28:27;11.70;99.90
21271;DHT22;10795;50.796;3.860;2023-03-23T06:31:12;11.40;99.90
21271;DHT22;10795;50.796;3.860;2023-03-23T06:33:39;11.10;99.90
21271;DHT22;10795;50.796;3.860;2023-03-23T06:36:27;10.70;99.90
21271;DHT22;10795;50.796;3.860;2023-03-23T06:39:10;10.70;99.90
21271;DHT22;10795;50.796;3.860;2023-03-23T06:42:09;10.60;99.90
21271;DHT22;10795;50.796;3.860;2023-03-23T06:44:40;10.80;99.90
21271;DHT22;10795;50.796;3.860;2023-03-23T06:47:06;10.40;99.90
21271;DHT22;10795;50.796;3.860;2023-03-23T06:49:39;10.20;99.90
21271;DHT22;10795;50.796;3.860;2023-03-23T06:52:25;10.40;99.90
21271;DHT22;10795;50.796;3.860;2023-03-23T06:56:20;10.40;99.90
21271;DHT22;10795;50.796;3.860;2023-03-23T06:59:21;10.60;99.90
21271;DHT22;10795;50.796;3.860;2023-03-23T07:01:47;10.60;99.90
21271;DHT22;10795;50.796;3.860;2023-03-23T07:04:17;10.80;99.90
21271;DHT22;10795;50.796;3.860;2023-03-23T07:06:51;10.80;99.90
21271;DHT22;10795;50.796;3.860;2023-03-23T07:09:17;10.80;99.90
21271;DHT22;10795;50.796;3.860;2023-03-23T07:11:43;10.80;99.90
21271;DHT22;10795;50.796;3.860;2023-03-23T07:14:26;10.70;99.90
21271;DHT22;10795;50.796;3.860;2023-03-23T07:16:56;10.70;99.90
21271;DHT22;10795;50.796;3.860;2023-03-23T07:19:22;10.70;99.90
21271;DHT22;10795;50.796;3.860;2023-03-23T07:21:49;10.80;99.90
21271;DHT22;10795;50.796;3.860;2023-03-23T07:24:18;10.90;99.90
21271;DHT22;10795;50.796;3.860;2023-03-23T07:27:32;10.90;99.90
21271;DHT22;10795;50.796;3.860;2023-03-23T07:33:20;10.90;99.90
21271;DHT22;10795;50.796;3.860;2023-03-23T07:36:02;11.00;99.90
21271;DHT22;10795;50.796;3.860;2023-03-23T07:38:43;10.80;99.90
21271;DHT22;10795;50.796;3.860;2023-03-23T07:41:31;10.90;99.90
21271;DHT22;10795;50.796;3.860;2023-03-23T07:44:10;10.70;99.90
21271;DHT22;10795;50.796;3.860;2023-03-23T07:46:36;10.60;99.90
21271;DHT22;10795;50.796;3.860;2023-03-23T07:49:10;10.60;99.90
21271;DHT22;10795;50.796;3.860;2023-03-23T07:51:47;10.50;99.90
21271;DHT22;10795;50.796;3.860;2023-03-23T07:54:17;10.50;99.90
21271;DHT22;10795;50.796;3.860;2023-03-23T07:56:57;10.50;99.90
21271;DHT22;10795;50.796;3.860;2023-03-23T07:59:31;10.60;99.90
21271;DHT22;10795;50.796;3.860;2023-03-23T08:05:49;10.40;99.90
21271;DHT22;10795;50.796;3.860;2023-03-23T08:08:49;10.40;99.90
21271;DHT22;10795;50.796;3.860;2023-03-23T08:11:39;10.30;99.90
21271;DHT22;10795;50.796;3.860;2023-03-23T08:14:50;10.30;99.90
21271;DHT22;10795;50.796;3.860;2023-03-23T08:17:48;10.30;99.90
21271;DHT22;10795;50.796;3.860;2023-03-23T08:20:28;10.30;99.90
21271;DHT22;10795;50.796;3.860;2023-03-23T08:22:59;10.20;99.90
21271;DHT22;10795;50.796;3.860;2023-03-23T08:26:07;10.20;99.90
21271;DHT22;10795;50.796;3.860;2023-03-23T08:29:19;10.30;99.90
21271;DHT22;10795;50.796;3.860;2023-03-23T08:32:21;10.50;99.90
21271;DHT22;10795;50.796;3.860;2023-03-23T08:35:00;10.80;99.90
21271;DHT22;10795;50.796;3.860;2023-03-23T08:38:29;10.80;99.90
21271;DHT22;10795;50.796;3.860;2023-03-23T08:41:37;10.80;99.90
21271;DHT22;10795;50.796;3.860;2023-03-23T08:45:03;10.80;99.90
21271;DHT22;10795;50.796;3.860;2023-03-23T08:48:07;11.20;99.90
21271;DHT22;10795;50.796;3.860;2023-03-23T08:54:39;11.30;99.90
21271;DHT22;10795;50.796;3.860;2023-03-23T08:57:58;11.50;99.90
21271;DHT22;10795;50.796;3.860;2023-03-23T09:00:48;11.60;99.90
21271;DHT22;10795;50.796;3.860;2023-03-23T09:04:04;11.50;99.90
21271;DHT22;10795;50.796;3.860;2023-03-23T09:07:06;11.80;99.90
21271;DHT22;10795;50.796;3.860;2023-03-23T09:09:50;12.00;99.90
21271;DHT22;10795;50.796;3.860;2023-03-23T09:12:39;11.90;99.90
21271;DHT22;10795;50.796;3.860;2023-03-23T09:15:18;12.00;99.90
21271;DHT22;10795;50.796;3.860;2023-03-23T09:17:53;12.10;99.90
21271;DHT22;10795;50.796;3.860;2023-03-23T09:20:22;12.20;99.90
21271;DHT22;10795;50.796;3.860;2023-03-23T09:22:55;12.20;99.90
21271;DHT22;10795;50.796;3.860;2023-03-23T09:25:27;12.30;99.90
21271;DHT22;10795;50.796;3.860;2023-03-23T09:28:01;12.60;99.90
21271;DHT22;10795;50.796;3.860;2023-03-23T09:30:34;12.60;99.90
21271;DHT22;10795;50.796;3.860;2023-03-23T09:33:03;12.80;99.90
21271;DHT22;10795;50.796;3.860;2023-03-23T09:35:31;12.90;99.90
21271;DHT22;10795;50.796;3.860;2023-03-23T09:38:00;13.40;99.90
21271;DHT22;10795;50.796;3.860;2023-03-23T09:48:38;13.20;99.90
21271;DHT22;10795;50.796;3.860;2023-03-23T09:51:32;13.40;99.90
21271;DHT22;10795;50.796;3.860;2023-03-23T09:54:05;13.30;99.90
21271;DHT22;10795;50.796;3.860;2023-03-23T09:56:34;13.40;99.90
21271;DHT22;10795;50.796;3.860;2023-03-23T09:59:40;13.40;99.90
21271;DHT22;10795;50.796;3.860;2023-03-23T10:02:21;13.40;99.90
21271;DHT22;10795;50.796;3.860;2023-03-23T10:04:55;13.60;99.90
21271;DHT22;10795;50.796;3.860;2023-03-23T10:07:26;13.40;99.90
21271;DHT22;10795;50.796;3.860;2023-03-23T10:09:52;13.70;99.90
21271;DHT22;10795;50.796;3.860;2023-03-23T10:12:40;13.70;99.90
21271;DHT22;10795;50.796;3.860;2023-03-23T10:15:29;13.60;99.90
21271;DHT22;10795;50.796;3.860;2023-03-23T10:26:06;13.60;99.90
21271;DHT22;10795;50.796;3.860;2023-03-23T10:28:40;14.00;99.90
21271;DHT22;10795;50.796;3.860;2023-03-23T10:31:16;14.30;99.90
21271;DHT22;10795;50.796;3.860;2023-03-23T10:33:49;14.40;99.90
21271;DHT22;10795;50.796;3.860;2023-03-23T10:41:46;14.40;99.90
21271;DHT22;10795;50.796;3.860;2023-03-23T10:44:21;14.50;99.90
21271;DHT22;10795;50.796;3.860;2023-03-23T10:47:05;14.40;99.90
21271;DHT22;10795;50.796;3.860;2023-03-23T10:49:38;14.50;99.90
21271;DHT22;10795;50.796;3.860;2023-03-23T10:52:15;14.70;99.90
21271;DHT22;10795;50.796;3.860;2023-03-23T10:54:51;14.50;99.90
21271;DHT22;10795;50.796;3.860;2023-03-23T10:57:22;14.70;99.90
21271;DHT22;10795;50.796;3.860;2023-03-23T10:59:49;15.00;99.90
21271;DHT22;10795;50.796;3.860;2023-03-23T11:02:20;15.20;99.90
21271;DHT22;10795;50.796;3.860;2023-03-23T11:05:01;15.50;99.90
21271;DHT22;10795;50.796;3.860;2023-03-23T11:07:32;15.80;99.90
21271;DHT22;10795;50.796;3.860;2023-03-23T11:10:07;15.80;99.90
21271;DHT22;10795;50.796;3.860;2023-03-23T11:12:34;15.80;99.90
21271;DHT22;10795;50.796;3.860;2023-03-23T11:15:15;15.90;99.90
21271;DHT22;10795;50.796;3.860;2023-03-23T11:17:42;15.90;99.90
21271;DHT22;10795;50.796;3.860;2023-03-23T11:20:11;15.80;99.90
21271;DHT22;10795;50.796;3.860;2023-03-23T11:22:38;15.50;99.90
21271;DHT22;10795;50.796;3.860;2023-03-23T11:25:05;15.40;99.90
21271;DHT22;10795;50.796;3.860;2023-03-23T11:27:33;15.20;99.90
21271;DHT22;10795;50.796;3.860;2023-03-23T11:30:08;15.20;99.90
21271;DHT22;10795;50.796;3.860;2023-03-23T11:32:35;15.00;99.90
21271;DHT22;10795;50.796;3.860;2023-03-23T11:35:04;15.10;99.90
21271;DHT22;10795;50.796;3.860;2023-03-23T11:37:32;15.10;99.90
21271;DHT22;10795;50.796;3.860;2023-03-23T11:40:01;15.40;99.90
21271;DHT22;10795;50.796;3.860;2023-03-23T11:45:39;15.30;99.90
21271;DHT22;10795;50.796;3.860;2023-03-23T11:51:01;15.50;99.90
21271;DHT22;10795;50.796;3.860;2023-03-23T11:56:24;16.10;99.90
21271;DHT22;10795;50.796;3.860;2023-03-23T11:58:55;16.10;99.90
21271;DHT22;10795;50.796;3.860;2023-03-23T12:01:37;16.50;99.90
21271;DHT22;10795;50.796;3.860;2023-03-23T12:07:21;17.10;99.90
21271;DHT22;10795;50.796;3.860;2023-03-23T12:15:21;16.40;99.90
21271;DHT22;10795;50.796;3.860;2023-03-23T12:18:23;16.60;99.90
21271;DHT22;10795;50.796;3.860;2023-03-23T12:21:24;16.80;99.90
21271;DHT22;10795;50.796;3.860;2023-03-23T12:27:14;16.00;99.90
21271;DHT22;10795;50.796;3.860;2023-03-23T12:41:27;17.30;99.90
21271;DHT22;10795;50.796;3.860;2023-03-23T12:43:58;17.60;99.90
21271;DHT22;10795;50.796;3.860;2023-03-23T13:03:17;16.80;99.90
21271;DHT22;10795;50.796;3.860;2023-03-23T13:05:50;16.90;99.90
21271;DHT22;10795;50.796;3.860;2023-03-23T13:08:37;16.50;99.90
21271;DHT22;10795;50.796;3.860;2023-03-23T13:11:08;16.60;99.90
21271;DHT22;10795;50.796;3.860;2023-03-23T13:17:03;17.00;99.90
21271;DHT22;10795;50.796;3.860;2023-03-23T13:19:41;16.70;99.90
21271;DHT22;10795;50.796;3.860;2023-03-23T13:22:16;16.60;99.90
21271;DHT22;10795;50.796;3.860;2023-03-23T13:24:57;16.40;99.90
21271;DHT22;10795;50.796;3.860;2023-03-23T13:27:26;16.30;99.90
21271;DHT22;10795;50.796;3.860;2023-03-23T13:29:56;16.10;99.90
21271;DHT22;10795;50.796;3.860;2023-03-23T13:32:34;15.90;99.90
21271;DHT22;10795;50.796;3.860;2023-03-23T13:35:10;16.10;99.90
21271;DHT22;10795;50.796;3.860;2023-03-23T13:37:44;15.90;99.90
21271;DHT22;10795;50.796;3.860;2023-03-23T13:42:51;15.80;99.90
21271;DHT22;10795;50.796;3.860;2023-03-23T13:50:57;16.70;99.90
21271;DHT22;10795;50.796;3.860;2023-03-23T13:53:30;16.80;99.90
21271;DHT22;10795;50.796;3.860;2023-03-23T13:56:16;16.60;99.90
21271;DHT22;10795;50.796;3.860;2023-03-23T13:58:49;16.60;99.90
21271;DHT22;10795;50.796;3.860;2023-03-23T14:01:30;16.70;99.90
21271;DHT22;10795;50.796;3.860;2023-03-23T14:03:59;16.50;99.90
21271;DHT22;10795;50.796;3.860;2023-03-23T14:06:33;16.60;99.90
21271;DHT22;10795;50.796;3.860;2023-03-23T14:09:15;16.60;99.90
21271;DHT22;10795;50.796;3.860;2023-03-23T14:12:03;16.50;99.90
21271;DHT22;10795;50.796;3.860;2023-03-23T14:14:41;16.40;99.90
21271;DHT22;10795;50.796;3.860;2023-03-23T14:17:18;16.10;99.90
21271;DHT22;10795;50.796;3.860;2023-03-23T14:19:51;16.10;99.90
21271;DHT22;10795;50.796;3.860;2023-03-23T14:22:28;15.90;99.90
21271;DHT22;10795;50.796;3.860;2023-03-23T14:25:02;15.50;99.90
21271;DHT22;10795;50.796;3.860;2023-03-23T14:27:34;15.40;99.90
21271;DHT22;10795;50.796;3.860;2023-03-23T14:30:04;15.40;99.90
21271;DHT22;10795;50.796;3.860;2023-03-23T14:32:32;15.30;99.90
21271;DHT22;10795;50.796;3.860;2023-03-23T14:35:00;15.30;99.90
21271;DHT22;10795;50.796;3.860;2023-03-23T14:37:27;15.30;99.90
21271;DHT22;10795;50.796;3.860;2023-03-23T14:39:56;15.50;99.90
21271;DHT22;10795;50.796;3.860;2023-03-23T14:42:30;15.50;99.90
21271;DHT22;10795;50.796;3.860;2023-03-23T14:44:57;15.90;99.90
21271;DHT22;10795;50.796;3.860;2023-03-23T14:47:32;16.20;99.90
21271;DHT22;10795;50.796;3.860;2023-03-23T14:50:01;16.20;99.90
21271;DHT22;10795;50.796;3.860;2023-03-23T14:52:33;15.90;99.90
21271;DHT22;10795;50.796;3.860;2023-03-23T14:55:17;15.70;99.90
21271;DHT22;10795;50.796;3.860;2023-03-23T14:57:43;15.80;99.90
21271;DHT22;10795;50.796;3.860;2023-03-23T15:00:41;15.90;99.90
21271;DHT22;10795;50.796;3.860;2023-03-23T15:03:12;15.90;99.90
21271;DHT22;10795;50.796;3.860;2023-03-23T15:05:49;16.30;99.90
21271;DHT22;10795;50.796;3.860;2023-03-23T15:08:22;16.60;99.90
21271;DHT22;10795;50.796;3.860;2023-03-23T15:10:53;16.30;99.90
21271;DHT22;10795;50.796;3.860;2023-03-23T15:13:20;16.50;99.90
21271;DHT22;10795;50.796;3.860;2023-03-23T15:15:46;16.40;99.90
21271;DHT22;10795;50.796;3.860;2023-03-23T15:18:44;16.30;99.90
21271;DHT22;10795;50.796;3.860;2023-03-23T15:21:23;16.00;99.90
21271;DHT22;10795;50.796;3.860;2023-03-23T15:23:49;15.80;99.90
21271;DHT22;10795;50.796;3.860;2023-03-23T15:26:34;15.60;99.90
21271;DHT22;10795;50.796;3.860;2023-03-23T15:29:13;15.10;99.90
21271;DHT22;10795;50.796;3.860;2023-03-23T15:31:46;14.80;99.90
21271;DHT22;10795;50.796;3.860;2023-03-23T15:34:27;14.50;99.90
21271;DHT22;10795;50.796;3.860;2023-03-23T15:37:03;14.70;99.90
21271;DHT22;10795;50.796;3.860;2023-03-23T15:39:30;15.10;99.90
21271;DHT22;10795;50.796;3.860;2023-03-23T15:41:57;15.20;99.90
21271;DHT22;10795;50.796;3.860;2023-03-23T15:44:32;15.20;99.90
21271;DHT22;10795;50.796;3.860;2023-03-23T15:47:32;15.30;99.90
21271;DHT22;10795;50.796;3.860;2023-03-23T15:50:03;15.30;99.90
21271;DHT22;10795;50.796;3.860;2023-03-23T15:52:29;15.30;99.90
21271;DHT22;10795;50.796;3.860;2023-03-23T15:54:55;15.40;99.90
21271;DHT22;10795;50.796;3.860;2023-03-23T15:57:21;15.50;99.90
21271;DHT22;10795;50.796;3.860;2023-03-23T15:59:47;15.50;99.90
21271;DHT22;10795;50.796;3.860;2023-03-23T16:02:20;15.60;99.90
21271;DHT22;10795;50.796;3.860;2023-03-23T16:04:48;15.60;99.90
21271;DHT22;10795;50.796;3.860;2023-03-23T16:07:14;15.60;99.90
21271;DHT22;10795;50.796;3.860;2023-03-23T16:09:39;15.50;99.90
21271;DHT22;10795;50.796;3.860;2023-03-23T16:12:13;15.50;99.90
21271;DHT22;10795;50.796;3.860;2023-03-23T16:14:39;15.40;99.90
21271;DHT22;10795;50.796;3.860;2023-03-23T16:17:10;15.40;99.90
21271;DHT22;10795;50.796;3.860;2023-03-23T16:19:38;15.40;99.90
21271;DHT22;10795;50.796;3.860;2023-03-23T16:22:04;15.40;99.90
21271;DHT22;10795;50.796;3.860;2023-03-23T16:24:30;15.50;99.90
21271;DHT22;10795;50.796;3.860;2023-03-23T16:26:56;15.50;99.90
21271;DHT22;10795;50.796;3.860;2023-03-23T16:29:22;15.60;99.90
21271;DHT22;10795;50.796;3.860;2023-03-23T16:31:47;15.40;99.90
21271;DHT22;10795;50.796;3.860;2023-03-23T16:34:13;15.40;99.90
21271;DHT22;10795;50.796;3.860;2023-03-23T16:36:39;15.30;99.90
21271;DHT22;10795;50.796;3.860;2023-03-23T16:39:05;15.30;99.90
21271;DHT22;10795;50.796;3.860;2023-03-23T16:41:31;15.30;99.90
21271;DHT22;10795;50.796;3.860;2023-03-23T16:43:57;15.20;99.90
21271;DHT22;10795;50.796;3.860;2023-03-23T16:46:23;15.30;99.90
21271;DHT22;10795;50.796;3.860;2023-03-23T16:48:49;15.40;99.90
21271;DHT22;10795;50.796;3.860;2023-03-23T16:51:15;15.30;99.90
21271;DHT22;10795;50.796;3.860;2023-03-23T16:53:41;15.20;99.90
21271;DHT22;10795;50.796;3.860;2023-03-23T16:56:07;15.20;99.90
21271;DHT22;10795;50.796;3.860;2023-03-23T16:58:33;15.40;99.90
21271;DHT22;10795;50.796;3.860;2023-03-23T17:01:00;15.40;99.90
21271;DHT22;10795;50.796;3.860;2023-03-23T17:03:26;15.20;99.90
21271;DHT22;10795;50.796;3.860;2023-03-23T17:05:52;15.10;99.90
21271;DHT22;10795;50.796;3.860;2023-03-23T17:08:19;15.20;99.90
21271;DHT22;10795;50.796;3.860;2023-03-23T17:10:46;15.30;99.90
21271;DHT22;10795;50.796;3.860;2023-03-23T17:13:12;15.40;99.90
21271;DHT22;10795;50.796;3.860;2023-03-23T17:15:39;15.00;99.90
21271;DHT22;10795;50.796;3.860;2023-03-23T17:18:06;15.00;99.90
21271;DHT22;10795;50.796;3.860;2023-03-23T17:20:33;15.10;99.90
21271;DHT22;10795;50.796;3.860;2023-03-23T17:23:00;15.10;99.90
21271;DHT22;10795;50.796;3.860;2023-03-23T17:25:27;15.00;99.90
21271;DHT22;10795;50.796;3.860;2023-03-23T17:27:55;15.10;99.90
21271;DHT22;10795;50.796;3.860;2023-03-23T17:30:21;15.00;99.90
21271;DHT22;10795;50.796;3.860;2023-03-23T17:32:47;15.00;99.90
21271;DHT22;10795;50.796;3.860;2023-03-23T17:35:13;15.00;99.90
21271;DHT22;10795;50.796;3.860;2023-03-23T17:37:39;15.10;99.90
21271;DHT22;10795;50.796;3.860;2023-03-23T17:40:06;14.90;99.90
21271;DHT22;10795;50.796;3.860;2023-03-23T17:42:36;15.00;99.90
21271;DHT22;10795;50.796;3.860;2023-03-23T17:45:03;15.00;99.90
21271;DHT22;10795;50.796;3.860;2023-03-23T17:47:29;14.90;99.90
21271;DHT22;10795;50.796;3.860;2023-03-23T17:49:57;14.90;99.90
21271;DHT22;10795;50.796;3.860;2023-03-23T17:52:23;15.00;99.90
21271;DHT22;10795;50.796;3.860;2023-03-23T17:54:49;15.00;99.90
21271;DHT22;10795;50.796;3.860;2023-03-23T17:57:15;14.90;99.90
21271;DHT22;10795;50.796;3.860;2023-03-23T17:59:41;14.90;99.90
21271;DHT22;10795;50.796;3.860;2023-03-23T18:02:07;15.00;99.90
21271;DHT22;10795;50.796;3.860;2023-03-23T18:04:34;15.00;99.90
21271;DHT22;10795;50.796;3.860;2023-03-23T18:07:01;15.00;99.90
21271;DHT22;10795;50.796;3.860;2023-03-23T18:09:26;14.90;99.90
21271;DHT22;10795;50.796;3.860;2023-03-23T18:11:53;14.90;99.90